createdAt,value
2022-07-31T00:00:42.496Z,3.88
2022-07-31T00:03:10.655Z,3.95
2022-07-31T00:05:41.575Z,3.55
2022-07-31T00:08:09.122Z,4.15
2022-07-31T00:10:35.869Z,3.60
2022-07-31T00:13:02.923Z,3.75
2022-07-31T00:15:29.837Z,3.60
2022-07-31T00:17:56.886Z,3.92
2022-07-31T00:20:23.579Z,3.75
2022-07-31T00:22:50.852Z,3.70
2022-07-31T00:25:18.746Z,3.70
2022-07-31T00:27:46.224Z,3.80
2022-07-31T00:30:13.486Z,3.47
2022-07-31T00:32:42.080Z,3.95
2022-07-31T00:35:10.417Z,4.00
2022-07-31T00:37:40.153Z,3.90
2022-07-31T00:40:10.607Z,3.90
2022-07-31T00:42:37.677Z,4.07
2022-07-31T00:45:04.852Z,3.67
2022-07-31T00:47:32.843Z,4.10
2022-07-31T00:50:00.562Z,3.50
2022-07-31T00:52:27.640Z,3.83
2022-07-31T00:54:54.358Z,3.95
2022-07-31T00:57:21.498Z,4.10
2022-07-31T00:59:48.268Z,4.25
2022-07-31T01:02:14.961Z,4.53
2022-07-31T01:04:42.000Z,4.55
2022-07-31T01:07:11.316Z,4.38
2022-07-31T01:09:38.208Z,4.78
2022-07-31T01:12:15.423Z,4.82
2022-07-31T01:14:48.380Z,4.35
2022-07-31T01:17:18.233Z,4.05
2022-07-31T01:19:46.702Z,4.35
2022-07-31T01:22:33.761Z,4.10
2022-07-31T01:25:12.117Z,4.28
2022-07-31T01:27:58.181Z,4.63
2022-07-31T01:30:30.992Z,4.90
2022-07-31T01:33:02.610Z,4.80
2022-07-31T01:35:34.997Z,4.45
2022-07-31T01:38:11.953Z,4.65
2022-07-31T01:40:43.355Z,4.13
2022-07-31T01:43:16.656Z,4.70
2022-07-31T01:45:45.523Z,4.05
2022-07-31T01:48:15.969Z,4.45
2022-07-31T01:50:46.579Z,4.22
2022-07-31T01:53:17.996Z,4.38
2022-07-31T01:56:01.913Z,4.13
2022-07-31T01:58:35.407Z,3.80
2022-07-31T02:01:04.118Z,4.05
2022-07-31T02:03:43.935Z,3.65
2022-07-31T02:06:17.452Z,3.85
2022-07-31T02:08:46.805Z,3.35
2022-07-31T02:11:15.981Z,3.80
2022-07-31T02:13:44.559Z,3.85
2022-07-31T02:16:13.110Z,3.83
2022-07-31T02:18:41.785Z,3.88
2022-07-31T02:21:09.865Z,3.92
2022-07-31T02:23:37.193Z,3.42
2022-07-31T02:26:07.463Z,3.65
2022-07-31T02:28:38.128Z,3.78
2022-07-31T02:31:08.964Z,3.80
2022-07-31T02:33:37.495Z,3.45
2022-07-31T02:36:06.959Z,3.35
2022-07-31T02:38:34.803Z,3.33
2022-07-31T02:41:05.303Z,3.90
2022-07-31T02:43:34.857Z,3.50
2022-07-31T02:46:03.701Z,3.67
2022-07-31T02:48:31.386Z,3.88
2022-07-31T02:50:59.213Z,4.57
2022-07-31T02:53:27.062Z,4.00
2022-07-31T02:55:54.393Z,4.13
2022-07-31T02:58:21.084Z,4.00
2022-07-31T03:00:48.307Z,4.25
2022-07-31T03:03:15.047Z,3.72
2022-07-31T03:05:42.043Z,3.72
2022-07-31T03:08:08.707Z,3.95
2022-07-31T03:10:35.759Z,3.60
2022-07-31T03:13:03.975Z,3.70
2022-07-31T03:15:32.281Z,3.70
2022-07-31T03:17:59.341Z,3.83
2022-07-31T03:20:27.793Z,3.95
2022-07-31T03:22:54.623Z,4.05
2022-07-31T03:25:22.404Z,4.18
2022-07-31T03:27:55.764Z,4.22
2022-07-31T03:30:27.239Z,4.00
2022-07-31T03:32:55.543Z,4.57
2022-07-31T03:35:24.291Z,4.18
2022-07-31T03:37:51.205Z,4.28
2022-07-31T03:40:18.300Z,4.53
2022-07-31T03:42:46.115Z,4.50
2022-07-31T03:45:13.860Z,4.00
2022-07-31T03:47:40.875Z,4.95
2022-07-31T03:50:09.220Z,4.63
2022-07-31T03:52:36.926Z,4.22
2022-07-31T03:55:04.399Z,4.63
2022-07-31T03:57:34.216Z,4.47
2022-07-31T04:00:03.246Z,3.90
2022-07-31T04:02:31.875Z,3.75
2022-07-31T04:04:59.925Z,3.38
2022-07-31T04:07:26.945Z,3.70
2022-07-31T04:09:53.878Z,4.30
2022-07-31T04:12:20.737Z,4.90
2022-07-31T04:14:47.946Z,4.53
2022-07-31T04:17:15.033Z,4.90
2022-07-31T04:19:42.165Z,4.50
2022-07-31T04:22:09.318Z,4.60
2022-07-31T04:24:36.572Z,5.15
2022-07-31T04:27:08.181Z,4.82
2022-07-31T04:29:37.987Z,5.00
2022-07-31T04:32:05.281Z,4.45
2022-07-31T04:34:32.735Z,3.90
2022-07-31T04:36:59.641Z,3.63
2022-07-31T04:39:26.680Z,3.78
2022-07-31T04:41:53.393Z,3.72
2022-07-31T04:44:21.043Z,4.05
2022-07-31T04:46:48.100Z,3.50
2022-07-31T04:49:15.489Z,3.65
2022-07-31T04:51:43.415Z,3.67
2022-07-31T04:54:11.372Z,3.60
2022-07-31T04:56:42.201Z,3.45
2022-07-31T04:59:14.790Z,3.30
2022-07-31T05:01:43.615Z,3.22
2022-07-31T05:04:11.184Z,3.33
2022-07-31T05:06:42.116Z,2.78
2022-07-31T05:09:18.505Z,3.38
2022-07-31T05:11:47.015Z,3.40
2022-07-31T05:14:16.892Z,3.50
2022-07-31T05:16:44.823Z,3.20
2022-07-31T05:19:13.602Z,2.97
2022-07-31T05:21:49.646Z,3.38
2022-07-31T05:24:22.627Z,3.50
2022-07-31T05:27:04.499Z,3.20
2022-07-31T05:29:33.199Z,3.20
2022-07-31T05:32:01.106Z,2.90
2022-07-31T05:34:31.109Z,2.97
2022-07-31T05:37:01.812Z,3.17
2022-07-31T05:39:29.849Z,3.17
2022-07-31T05:41:56.851Z,2.92
2022-07-31T05:44:24.987Z,2.45
2022-07-31T05:49:18.933Z,2.83
2022-07-31T05:51:46.866Z,2.95
2022-07-31T05:54:14.626Z,2.92
2022-07-31T05:56:41.370Z,3.08
2022-07-31T05:59:08.464Z,3.10
2022-07-31T06:01:35.239Z,2.78
2022-07-31T06:04:03.063Z,3.30
2022-07-31T06:06:29.803Z,3.00
2022-07-31T06:09:03.368Z,2.60
2022-07-31T06:11:30.777Z,2.60
2022-07-31T06:13:58.601Z,2.67
2022-07-31T06:16:25.357Z,2.72
2022-07-31T06:18:53.867Z,2.90
2022-07-31T06:23:46.773Z,2.92
2022-07-31T06:26:13.521Z,2.75
2022-07-31T06:28:49.288Z,2.70
2022-07-31T06:31:22.535Z,2.85
2022-07-31T06:33:50.952Z,2.45
2022-07-31T06:36:18.849Z,2.58
2022-07-31T06:38:49.102Z,2.60
2022-07-31T06:41:35.795Z,2.70
2022-07-31T06:44:03.912Z,2.65
2022-07-31T06:46:30.606Z,3.28
2022-07-31T06:48:57.691Z,2.30
2022-07-31T06:51:32.392Z,2.90
2022-07-31T06:54:05.338Z,2.97
2022-07-31T06:56:33.087Z,2.90
2022-07-31T06:59:00.575Z,2.80
2022-07-31T07:01:27.916Z,3.22
2022-07-31T07:03:55.845Z,3.22
2022-07-31T07:06:23.160Z,2.47
2022-07-31T07:08:50.935Z,3.10
2022-07-31T07:11:19.011Z,2.47
2022-07-31T07:13:46.966Z,2.30
2022-07-31T07:16:15.241Z,2.60
2022-07-31T07:18:43.511Z,2.60
2022-07-31T07:21:11.131Z,2.47
2022-07-31T07:23:38.345Z,2.67
2022-07-31T07:26:05.669Z,2.45
2022-07-31T07:28:32.805Z,2.17
2022-07-31T07:30:59.656Z,2.55
2022-07-31T07:33:41.856Z,2.45
2022-07-31T07:36:23.452Z,2.40
2022-07-31T07:38:54.845Z,2.17
2022-07-31T07:41:23.359Z,2.20
2022-07-31T07:43:51.651Z,2.53
2022-07-31T07:46:19.717Z,2.33
2022-07-31T07:48:46.780Z,2.67
2022-07-31T07:51:13.670Z,2.30
2022-07-31T07:53:40.841Z,2.17
2022-07-31T07:56:07.708Z,2.15
2022-07-31T07:58:34.400Z,2.20
2022-07-31T08:01:01.954Z,2.20
2022-07-31T08:03:50.031Z,2.55
2022-07-31T08:06:16.237Z,2.60
2022-07-31T08:08:42.977Z,2.10
2022-07-31T08:11:10.026Z,2.50
2022-07-31T08:13:38.806Z,2.35
2022-07-31T08:16:08.789Z,2.00
2022-07-31T08:18:35.651Z,1.90
2022-07-31T08:21:02.661Z,2.50
2022-07-31T08:23:29.561Z,2.20
2022-07-31T08:25:56.616Z,2.05
2022-07-31T08:28:26.673Z,1.85
2022-07-31T08:30:54.364Z,2.63
2022-07-31T08:33:21.890Z,2.47
2022-07-31T08:35:50.945Z,2.28
2022-07-31T08:38:18.540Z,2.10
2022-07-31T08:40:46.908Z,2.25
2022-07-31T08:44:01.685Z,2.10
2022-07-31T08:46:05.616Z,1.88
2022-07-31T08:48:33.367Z,2.20
2022-07-31T08:51:03.982Z,2.10
2022-07-31T08:53:34.619Z,2.05
2022-07-31T08:56:02.450Z,2.33
2022-07-31T08:58:29.304Z,2.30
2022-07-31T09:00:57.035Z,2.00
2022-07-31T09:03:23.893Z,1.70
2022-07-31T09:05:50.890Z,2.30
2022-07-31T09:08:17.868Z,2.03
2022-07-31T09:10:49.649Z,1.95
2022-07-31T09:13:18.905Z,2.10
2022-07-31T09:15:46.504Z,1.65
2022-07-31T09:18:25.122Z,1.83
2022-07-31T09:20:56.525Z,1.63
2022-07-31T09:23:24.266Z,1.88
2022-07-31T09:26:04.578Z,2.17
2022-07-31T09:28:42.996Z,1.67
2022-07-31T09:31:11.449Z,1.80
2022-07-31T09:33:45.166Z,2.05
2022-07-31T09:36:13.574Z,1.80
2022-07-31T09:38:42.764Z,2.00
2022-07-31T09:41:56.300Z,2.00
2022-07-31T09:44:10.506Z,1.70
2022-07-31T09:46:46.681Z,1.55
2022-07-31T09:49:13.887Z,1.67
2022-07-31T09:51:42.350Z,1.80
2022-07-31T09:54:23.411Z,1.60
2022-07-31T09:56:50.600Z,1.90
2022-07-31T09:59:17.830Z,1.58
2022-07-31T10:01:49.226Z,1.70
2022-07-31T10:04:20.587Z,1.80
2022-07-31T10:06:49.188Z,1.60
2022-07-31T10:09:17.840Z,1.67
2022-07-31T10:11:46.419Z,1.70
2022-07-31T10:14:24.102Z,1.60
2022-07-31T10:16:56.931Z,1.58
2022-07-31T10:19:25.717Z,1.60
2022-07-31T10:21:59.933Z,1.83
2022-07-31T10:24:28.777Z,1.52
2022-07-31T10:27:10.383Z,1.58
2022-07-31T10:29:39.335Z,1.48
2022-07-31T10:32:08.115Z,1.70
2022-07-31T10:34:35.881Z,1.65
2022-07-31T10:37:11.219Z,1.75
2022-07-31T10:40:03.816Z,1.63
2022-07-31T10:43:07.527Z,1.48
2022-07-31T10:45:45.434Z,1.50
2022-07-31T10:48:12.152Z,1.40
2022-07-31T10:50:39.238Z,1.90
2022-07-31T10:53:15.283Z,1.67
2022-07-31T10:55:43.341Z,1.75
2022-07-31T10:58:19.831Z,1.40
2022-07-31T11:00:46.982Z,1.40
2022-07-31T11:03:16.008Z,1.83
2022-07-31T11:06:01.019Z,1.48
2022-07-31T11:08:40.370Z,1.63
2022-07-31T11:11:07.405Z,1.30
2022-07-31T11:13:45.598Z,1.70
2022-07-31T11:16:12.689Z,1.58
2022-07-31T11:18:39.415Z,1.65
2022-07-31T11:21:36.061Z,1.55
2022-07-31T11:24:03.199Z,1.42
2022-07-31T11:26:41.696Z,1.60
2022-07-31T11:29:58.525Z,1.20
2022-07-31T11:32:24.839Z,1.30
2022-07-31T11:34:55.116Z,1.60
2022-07-31T11:37:30.701Z,1.48
2022-07-31T11:40:13.463Z,1.40
2022-07-31T11:42:55.914Z,1.50
2022-07-31T11:45:34.405Z,1.48
2022-07-31T11:48:11.769Z,1.60
2022-07-31T11:50:41.530Z,1.30
2022-07-31T11:53:08.223Z,1.58
2022-07-31T11:55:53.314Z,1.27
2022-07-31T11:58:21.681Z,1.85
2022-07-31T12:00:54.994Z,1.38
2022-07-31T12:03:26.491Z,1.60
2022-07-31T12:05:53.907Z,1.40
2022-07-31T12:08:22.397Z,1.67
2022-07-31T12:10:49.973Z,1.63
2022-07-31T12:13:18.946Z,1.77
2022-07-31T12:16:04.450Z,1.80
2022-07-31T12:18:33.968Z,1.70
2022-07-31T12:23:49.776Z,1.33
2022-07-31T12:26:28.019Z,1.23
2022-07-31T12:29:00.642Z,1.25
2022-07-31T12:31:29.663Z,1.17
2022-07-31T12:33:56.531Z,1.27
2022-07-31T12:36:23.701Z,1.30
2022-07-31T12:39:01.581Z,1.00
2022-07-31T12:41:30.168Z,1.55
2022-07-31T12:44:13.118Z,0.95
2022-07-31T12:46:41.571Z,1.27
2022-07-31T12:49:08.534Z,1.25
2022-07-31T12:51:45.156Z,1.35
2022-07-31T12:54:15.490Z,1.08
2022-07-31T12:56:43.451Z,1.50
2022-07-31T12:59:12.113Z,1.23
2022-07-31T13:01:39.302Z,1.23
2022-07-31T13:04:07.968Z,1.25
2022-07-31T13:06:45.577Z,1.10
2022-07-31T13:09:12.266Z,1.00
2022-07-31T13:11:48.174Z,1.00
2022-07-31T13:14:20.607Z,1.35
2022-07-31T13:16:48.731Z,1.02
2022-07-31T13:19:15.784Z,1.48
2022-07-31T13:21:49.099Z,0.88
2022-07-31T13:24:19.214Z,1.05
2022-07-31T13:26:47.117Z,1.23
2022-07-31T13:29:13.898Z,1.13
2022-07-31T13:31:40.670Z,0.93
2022-07-31T13:34:07.999Z,0.90
2022-07-31T13:36:38.935Z,1.20
2022-07-31T13:39:07.625Z,0.82
2022-07-31T13:41:35.512Z,0.90
2022-07-31T13:44:03.226Z,1.10
2022-07-31T13:46:31.206Z,1.02
2022-07-31T13:49:01.985Z,1.00
2022-07-31T13:51:29.692Z,0.75
2022-07-31T13:53:56.907Z,0.98
2022-07-31T13:56:41.771Z,0.93
2022-07-31T13:59:11.483Z,0.93
2022-07-31T14:02:13.599Z,0.93
2022-07-31T14:04:32.378Z,1.20
2022-07-31T14:07:03.516Z,1.00
2022-07-31T14:09:34.005Z,1.00
2022-07-31T14:14:31.497Z,0.90
2022-07-31T14:16:58.572Z,1.00
2022-07-31T14:19:25.262Z,1.20
2022-07-31T14:21:59.167Z,1.20
2022-07-31T14:24:27.175Z,1.30
2022-07-31T14:26:53.868Z,0.90
2022-07-31T14:29:21.002Z,1.20
2022-07-31T14:31:47.669Z,0.90
2022-07-31T14:34:15.804Z,0.90
2022-07-31T14:36:42.478Z,1.10
2022-07-31T14:39:09.485Z,0.95
2022-07-31T14:41:36.174Z,1.25
2022-07-31T14:44:03.260Z,1.27
2022-07-31T14:46:29.955Z,0.98
2022-07-31T14:48:57.032Z,1.10
2022-07-31T14:51:23.857Z,1.38
2022-07-31T14:53:52.649Z,1.02
2022-07-31T14:56:34.768Z,1.00
2022-07-31T14:59:06.392Z,1.25
2022-07-31T15:01:33.410Z,0.93
2022-07-31T15:04:00.326Z,1.60
2022-07-31T15:06:39.591Z,0.88
2022-07-31T15:09:16.281Z,1.10
2022-07-31T15:12:01.195Z,1.45
2022-07-31T15:14:29.733Z,1.27
2022-07-31T15:16:56.932Z,1.00
2022-07-31T15:19:23.747Z,1.15
2022-07-31T15:22:16.154Z,1.10
2022-07-31T15:24:40.229Z,1.20
2022-07-31T15:27:10.884Z,1.10
2022-07-31T15:30:00.209Z,1.00
2022-07-31T15:32:25.023Z,1.10
2022-07-31T15:34:53.428Z,1.20
2022-07-31T15:37:20.704Z,1.00
2022-07-31T15:40:02.748Z,1.10
2022-07-31T15:42:32.287Z,1.08
2022-07-31T15:44:59.301Z,2.05
2022-07-31T15:47:25.984Z,1.05
2022-07-31T15:49:52.977Z,1.20
2022-07-31T15:52:20.002Z,1.40
2022-07-31T15:54:51.508Z,1.30
2022-07-31T15:57:18.481Z,1.40
2022-07-31T15:59:45.484Z,1.08
2022-07-31T16:02:12.173Z,1.20
2022-07-31T16:04:51.444Z,1.20
2022-07-31T16:08:28.944Z,1.17
2022-07-31T16:10:15.961Z,2.50
2022-07-31T16:12:45.263Z,1.35
2022-07-31T16:15:12.569Z,1.33
2022-07-31T16:17:40.099Z,1.20
2022-07-31T16:20:09.755Z,1.38
2022-07-31T16:25:05.837Z,1.20
2022-07-31T16:27:32.727Z,1.23
2022-07-31T16:30:02.009Z,1.00
2022-07-31T16:32:30.106Z,1.15
2022-07-31T16:35:00.644Z,1.25
2022-07-31T16:37:51.827Z,1.20
2022-07-31T16:40:28.811Z,1.10
2022-07-31T16:42:56.828Z,0.90
2022-07-31T16:45:23.547Z,1.30
2022-07-31T16:47:51.402Z,1.02
2022-07-31T16:50:18.431Z,1.10
2022-07-31T16:52:45.190Z,1.73
2022-07-31T16:55:12.237Z,1.27
2022-07-31T16:57:38.915Z,1.20
2022-07-31T17:00:08.410Z,1.20
2022-07-31T17:02:35.163Z,1.20
2022-07-31T17:05:02.208Z,0.93
2022-07-31T17:07:28.974Z,1.40
2022-07-31T17:09:56.046Z,1.20
2022-07-31T17:12:22.715Z,1.10
2022-07-31T17:14:51.246Z,1.30
2022-07-31T17:17:19.119Z,1.50
2022-07-31T17:19:47.439Z,1.10
2022-07-31T17:22:18.001Z,1.52
2022-07-31T17:24:51.322Z,1.25
2022-07-31T17:27:19.525Z,1.48
2022-07-31T17:29:48.013Z,1.15
2022-07-31T17:32:17.084Z,1.23
2022-07-31T17:34:46.122Z,1.30
2022-07-31T17:37:13.481Z,1.42
2022-07-31T17:39:40.778Z,1.20
2022-07-31T17:42:09.318Z,1.38
2022-07-31T17:44:37.197Z,1.50
2022-07-31T17:47:05.163Z,1.17
2022-07-31T17:49:33.312Z,1.30
2022-07-31T17:52:00.574Z,1.05
2022-07-31T17:54:31.860Z,1.00
2022-07-31T17:57:02.240Z,1.42
2022-07-31T17:59:29.835Z,1.17
2022-07-31T18:02:02.979Z,1.60
2022-07-31T18:04:32.071Z,1.48
2022-07-31T18:07:00.104Z,1.13
2022-07-31T18:09:27.921Z,1.20
2022-07-31T18:11:55.408Z,1.45
2022-07-31T18:14:24.539Z,1.27
2022-07-31T18:16:52.058Z,1.20
2022-07-31T18:19:19.149Z,1.58
2022-07-31T18:21:45.946Z,1.48
2022-07-31T18:24:13.073Z,1.30
2022-07-31T18:26:39.778Z,1.15
2022-07-31T18:29:07.056Z,1.30
2022-07-31T18:31:35.238Z,1.73
2022-07-31T18:34:05.104Z,1.23
2022-07-31T18:36:35.273Z,1.42
2022-07-31T18:39:03.974Z,1.83
2022-07-31T18:41:30.959Z,1.52
2022-07-31T18:43:58.534Z,1.40
2022-07-31T18:46:25.549Z,1.60
2022-07-31T18:48:55.913Z,1.70
2022-07-31T18:51:24.389Z,1.60
2022-07-31T18:53:54.250Z,1.40
2022-07-31T18:56:22.522Z,1.35
2022-07-31T18:58:49.615Z,1.30
2022-07-31T19:01:16.495Z,1.40
2022-07-31T19:03:43.509Z,1.80
2022-07-31T19:06:10.222Z,1.50
2022-07-31T19:08:36.914Z,1.40
2022-07-31T19:11:03.988Z,1.90
2022-07-31T19:13:31.087Z,1.27
2022-07-31T19:15:58.146Z,1.63
2022-07-31T19:18:28.711Z,1.50
2022-07-31T19:21:17.961Z,1.50
2022-07-31T19:23:46.751Z,1.38
2022-07-31T19:26:13.707Z,1.38
2022-07-31T19:28:43.065Z,1.60
2022-07-31T19:31:10.888Z,1.73
2022-07-31T19:33:37.846Z,1.70
2022-07-31T19:36:05.307Z,1.90
2022-07-31T19:38:33.312Z,1.40
2022-07-31T19:41:00.863Z,1.73
2022-07-31T19:43:28.930Z,1.40
2022-07-31T19:46:10.224Z,1.60
2022-07-31T19:48:48.350Z,1.70
2022-07-31T19:51:16.209Z,1.70
2022-07-31T19:53:44.459Z,1.60
2022-07-31T19:56:18.087Z,1.67
2022-07-31T19:58:47.340Z,1.88
2022-07-31T20:01:14.418Z,1.98
2022-07-31T20:03:41.225Z,1.60
2022-07-31T20:06:08.643Z,1.60
2022-07-31T20:08:35.380Z,1.98
2022-07-31T20:11:04.423Z,1.63
2022-07-31T20:13:32.625Z,2.00
2022-07-31T20:16:00.002Z,1.92
2022-07-31T20:18:28.605Z,2.80
2022-07-31T20:21:03.724Z,1.90
2022-07-31T20:23:31.357Z,1.80
2022-07-31T20:25:58.755Z,1.77
2022-07-31T20:28:26.364Z,1.90
2022-07-31T20:30:53.798Z,1.65
2022-07-31T20:33:20.662Z,1.65
2022-07-31T20:35:50.141Z,1.70
2022-07-31T20:38:21.330Z,2.05
2022-07-31T20:40:54.643Z,2.08
2022-07-31T20:43:26.869Z,2.10
2022-07-31T20:45:57.783Z,2.10
2022-07-31T20:48:32.781Z,2.15
2022-07-31T20:51:01.359Z,2.40
2022-07-31T20:53:28.747Z,2.50
2022-07-31T20:55:56.388Z,1.92
2022-07-31T20:58:24.380Z,2.03
2022-07-31T21:00:53.107Z,2.03
2022-07-31T21:03:20.883Z,2.40
2022-07-31T21:05:48.373Z,2.20
2022-07-31T21:08:15.370Z,1.98
2022-07-31T21:10:42.773Z,1.98
2022-07-31T21:13:10.053Z,2.20
2022-07-31T21:15:41.752Z,2.00
2022-07-31T21:18:16.404Z,2.00
2022-07-31T21:20:49.749Z,2.20
2022-07-31T21:23:20.684Z,1.88
2022-07-31T21:25:47.996Z,1.77
2022-07-31T21:28:15.049Z,1.92
2022-07-31T21:30:42.281Z,2.10
2022-07-31T21:33:09.747Z,1.90
2022-07-31T21:35:39.378Z,2.33
2022-07-31T21:38:10.216Z,1.92
2022-07-31T21:40:39.106Z,2.00
2022-07-31T21:43:06.193Z,2.30
2022-07-31T21:45:50.523Z,2.13
2022-07-31T21:48:22.439Z,2.00
2022-07-31T21:50:49.662Z,2.08
2022-07-31T21:53:16.440Z,2.40
2022-07-31T21:55:44.023Z,1.70
2022-07-31T21:58:11.044Z,2.03
2022-07-31T22:00:38.487Z,2.03
2022-07-31T22:03:05.500Z,2.20
2022-07-31T22:05:51.813Z,2.20
2022-07-31T22:08:18.754Z,1.95
2022-07-31T22:10:45.841Z,1.83
2022-07-31T22:13:12.903Z,2.13
2022-07-31T22:15:58.263Z,2.38
2022-07-31T22:18:31.540Z,2.30
2022-07-31T22:20:59.399Z,2.15
2022-07-31T22:23:27.598Z,2.33
2022-07-31T22:25:54.892Z,2.17
2022-07-31T22:28:23.575Z,2.28
2022-07-31T22:30:51.170Z,1.92
2022-07-31T22:33:18.808Z,2.08
2022-07-31T22:35:59.287Z,2.10
2022-07-31T22:38:29.510Z,2.08
2022-07-31T22:40:57.260Z,2.10
2022-07-31T22:44:11.505Z,2.33
2022-07-31T22:46:14.229Z,1.98
2022-07-31T22:48:41.440Z,1.92
2022-07-31T22:51:08.841Z,2.38
2022-07-31T22:53:36.132Z,1.70
2022-07-31T22:56:04.121Z,2.20
2022-07-31T22:58:30.840Z,2.47
2022-07-31T23:00:57.912Z,2.25
2022-07-31T23:03:24.679Z,2.25
2022-07-31T23:06:28.213Z,1.85
2022-07-31T23:08:38.505Z,2.17
2022-07-31T23:11:05.499Z,2.00
2022-07-31T23:13:32.238Z,2.42
2022-07-31T23:15:59.664Z,2.60
2022-07-31T23:18:26.836Z,2.05
2022-07-31T23:20:53.582Z,2.42
2022-07-31T23:23:20.603Z,2.10
2022-07-31T23:25:47.271Z,2.00
2022-07-31T23:28:14.272Z,2.28
2022-07-31T23:30:41.395Z,2.20
2022-07-31T23:33:08.386Z,2.00
2022-07-31T23:35:35.072Z,1.92
2022-07-31T23:38:02.074Z,2.33
2022-07-31T23:40:28.816Z,2.38
2022-07-31T23:42:55.828Z,2.20
2022-07-31T23:45:23.492Z,2.33
2022-07-31T23:47:50.920Z,2.00
2022-07-31T23:50:17.696Z,2.05
2022-07-31T23:52:45.089Z,2.40
2022-07-31T23:55:12.849Z,2.25
2022-07-31T23:57:40.401Z,2.17
